Vulcan, Canada
Current Conditions -  °F | °C
As of 12:00 PM on Sunday 23 Nov 2014 (Local Time) from CYQL Reporting Station
Broken Clouds Broken Clouds  
Wind Chill: 30°   Ceiling: 26000
Heat Index: 41°   Visibility: 40mi
Dew Point: 19°   Wind: 26mph
Humidity: 42%   Direction: 260°W
Pressure: 29.8"   Gusts: 39mph
Location:  50.4°N, 113.25°W
Report Text: CYQL 231900Z 26023G34KT 40SM FEW060 BKN260 05/M07 A2980 RMK SC1CI5 SLP119
Loading
Personal Weather Stations






























Interactive Weather Map New forecast layout! Learn more

10-Day Weather Forecast

Advertisements
Track Severe Weather on mobile